Tiempo atmosférico en la estación meteorológica de Ossa De Montiel, Albacete (905 m.)



Fecha
DESCASC
Temp. máxima en grados centígrados (hora)
DESCASC
Temp. mínima en grados centígrados (hora)
DESCASC
Temp. media en grados centígrados
DESCASC
Racha de viento máxima en m/sg (hora)
DESCASC
Velocidad máxima media en intervalos de 10 minutos(hora)
DESCASC
Precipitaciones diarias en mm
DESCASC
Precipitaciones de 00:00 a 06:00 en mm
DESCASC
Precipitaciones de 06:00 a 12:00 en mm
DESCASC
Precipitaciones de 12:00 a 18:00 en mm
DESCASC
Precipitaciones de 18:00 a 24:00 en mm
DESCASC
06-07-2020 35.6 (15:30) 18.8 (07:10) 27.2 10.56 (18:10) 3.89 (16:00) 0 0 0 0 0
05-07-2020 35.3 (14:40) 17.5 (07:10) 26.4 7.78 (15:30) 4.17 (15:30) 0 0 0 0 0
04-07-2020 34.3 (15:30) 15.8 (06:00) 25 6.39 (16:30) 3.06 (18:00) 0 0 0 0 0
03-07-2020 32.6 (18:10) 14.5 (06:40) 23.5 7.78 (19:40) 3.89 (19:50) 0 0 0 0 0
02-07-2020 32.5 (16:20) 17 (00:00) 24.8 11.67 (15:30) 5.83 (14:30) 0 0 0 0 0
01-07-2020 34.3 (17:20) 18.9 (00:00) 26.6 11.94 (15:10) 5.56 (16:30) 0 0 0 0 0
30-06-2020 37.2 (16:50) 19.7 (00:00) 28.5 10.56 (17:40) 5.83 (17:40) 0 0 0 0 0
29-06-2020 36.8 (17:00) 17.1 (00:00) 26.9 7.22 (13:20) 3.61 (18:00) 0 0 0 0 0
28-06-2020 34.3 (18:50) 15.6 (00:00) 24.9 7.22 (16:20) 3.06 (16:00) 0 0 0 0 0
27-06-2020 31.7 (17:00) 13.7 (00:00) 22.7 7.78 (15:20) 3.61 (15:20) 0 0 0 0 0
26-06-2020 31.9 (15:00) 18.3 (00:00) 25.1 9.72 (17:20) 5 (17:20) 0 0 0 0 0
25-06-2020 35 (18:00) 17.3 (00:00) 26.1 9.44 (18:10) 5 (18:50) 0 0 0 0 0
24-06-2020 32 (18:00) 18.9 (00:00) 25.4 9.72 (18:30) 5.83 (20:30) 0 0 0 0 0
23-06-2020 36.4 (16:00) 17.5 (00:00) 27 8.89 (18:30) 4.72 (20:00) 0 0 0 0 0
22-06-2020 34.9 (16:40) 16.4 (00:00) 25.7 9.72 (18:10) 5.56 (19:10) 0 0 0 0 0
21-06-2020 33.1 (16:50) 13.5 (00:00) 23.3 7.22 (13:30) 2.78 (12:40) 0 0 0 0 0
20-06-2020 31.6 (17:00) 12.4 (00:00) 22 8.61 (19:10) 3.61 (19:10) 0 0 0 0 0
19-06-2020 29.6 (18:10) 12.9 (00:00) 21.3 9.44 (15:50) 3.61 (18:10) 0 0 0 0 0
18-06-2020 29.1 (17:30) 9.8 (00:00) 19.5 10.83 (13:10) 3.61 (15:50) 0 0 0 0 0
17-06-2020 25.9 (17:10) 10.9 (00:00) 18.4 11.39 (16:00) 5.83 (16:50) 0 0 0 0 0
16-06-2020 25.5 (15:20) 14.1 (00:00) 19.8 12.5 (17:20) 5 (18:40) 0 0 0 0 0
15-06-2020 27.6 (17:40) 9.7 (00:00) 18.7 9.17 (18:40) 5 (18:00) 0 0 0 0 0
14-06-2020 25.7 (17:40) 11.1 (00:00) 18.4 9.72 (16:40) 4.44 (19:10) 0 0 0 0 0
13-06-2020 23.3 (17:40) 9.6 (00:00) 16.4 9.17 (01:10) 4.44 (09:40) 0 0 0 0 0
12-06-2020 19.8 (15:20) 10.6 (00:00) 15.2 13.61 (15:10) 7.22 (15:10) 0 0 0 0 0
11-06-2020 25 (16:40) 11.6 (00:00) 18.3 14.44 (14:10) 7.78 (10:30) 0 0 0 0 0
10-06-2020 25.9 (17:50) 9.2 (00:00) 17.5 10.28 (18:00) 3.89 (18:00) 0 0 0 0 0
09-06-2020 22.7 (18:20) 11 (00:00) 16.9 6.94 (15:30) 3.89 (19:20) 0 0 0 0 0
08-06-2020 21.3 (17:30) 12.4 (05:40) 16.8 8.33 (10:10) 4.72 (14:40) 0 0 0 0 0
07-06-2020 24.6 (17:20) 14.1 (00:00) 19.4 13.61 (18:50) 6.67 (14:40) 0 0 0 0 0

Gráficas

Temp. máximas Temp. mínimas Temp. medias Precipitaciones Rachas de viento máximas Velocidades máximas media en intervalos de 10 minutos

Datos horarios

Fecha y hora oficial Temperatura (ºC) Velocidad del viento (km/h) Dirección del viento Racha (km/h) Dirección de racha Precipitación (mm) Presión (hPa) Tendencia (hPa) Humedad (%)
2020-07-06 23:00:00 27.4 0 Calma 6 Norte 0 -- -- 28
2020-07-06 22:00:00 29.6 4 Nordeste 8 Nordeste 0 -- -- 25
2020-07-06 21:00:00 32.7 7 Nordeste 17 Norte 0 -- -- 21
2020-07-06 20:00:00 34.1 9 Norte 20 Nordeste 0 -- -- 19
2020-07-06 19:00:00 35.5 8 Noroeste 38 Nordeste 0 -- -- 18
2020-07-06 18:00:00 35.1 9 Norte 26 Norte 0 -- -- 18
2020-07-06 17:00:00 35 8 Nordeste 29 Norte 0 -- -- 18
2020-07-06 16:00:00 34.8 14 Nordeste 30 Noroeste 0 -- -- 19
2020-07-06 15:00:00 35.3 10 Norte 28 Nordeste 0 -- -- 19
2020-07-06 14:00:00 34.9 7 Norte 21 Oeste 0 -- -- 19
2020-07-06 13:00:00 34.8 8 Noroeste 20 Oeste 0 -- -- 21
2020-07-06 12:00:00 33.6 8 Oeste 19 Oeste 0 -- -- 24
2020-07-06 11:00:00 31.2 8 Sudoeste 15 Oeste 0 -- -- 29
2020-07-06 10:00:00 28.4 9 Oeste 18 Sudoeste 0 -- -- 34
2020-07-06 09:00:00 25.5 4 Sur 12 Sudoeste 0 -- -- 38
2020-07-06 08:00:00 21.9 3 Sudeste 10 Sudeste 0 -- -- 43
2020-07-06 07:00:00 19 3 Sudeste 7 Sudeste 0 -- -- 50
2020-07-06 06:00:00 20.5 3 Sudeste 8 Sur 0 -- -- 48
2020-07-06 05:00:00 20.4 4 Sudeste 7 Sudeste 0 -- -- 51
2020-07-06 04:00:00 20.5 4 Sudeste 6 Sudeste 0 -- -- 53
2020-07-06 03:00:00 20.8 2 Sudeste 5 Sudeste 0 -- -- 52
2020-07-06 02:00:00 22.3 2 Sudeste 6 Sudeste 0 -- -- 49
2020-07-06 01:00:00 23.3 0 Calma 6 Sudeste 0 -- -- 46
2020-07-06 00:00:00 25.8 0 Calma 5 Sur 0 -- -- 41
2020-07-05 23:00:00 27.4 4 Sur 16 Sudeste 0 -- -- 38
2020-07-05 22:00:00 29.2 3 Sudeste 13 Nordeste 0 -- -- 24
2020-07-05 21:00:00 31.9 9 Nordeste 21 Nordeste 0 -- -- 21
2020-07-05 20:00:00 33.4 10 Nordeste 25 Nordeste 0 -- -- 20
2020-07-05 19:00:00 34.1 9 Este 20 Este 0 -- -- 21
2020-07-05 18:00:00 33.8 5 Nordeste 17 Norte 0 -- -- 22
2020-07-05 17:00:00 33.6 8 Nordeste 24 Nordeste 0 -- -- 22
2020-07-05 16:00:00 34.1 7 Este 28 Este 0 -- -- 23
2020-07-05 15:00:00 35.3 5 Sudoeste 18 Oeste 0 -- -- 20
2020-07-05 14:00:00 34.1 6 Sur 22 Nordeste 0 -- -- 20
2020-07-05 13:00:00 32.9 5 Sudeste 15 Este 0 -- -- 22
2020-07-05 12:00:00 32.3 5 Oeste 14 Oeste 0 -- -- 27
2020-07-05 11:00:00 30.4 6 Sudoeste 11 Sudoeste 0 -- -- 32
2020-07-05 10:00:00 28.2 5 Sudoeste 11 Sur 0 -- -- 35
2020-07-05 09:00:00 24.6 4 Sur 9 Sudeste 0 -- -- 57
2020-07-05 08:00:00 20.4 3 Sur 10 Sudeste 0 -- -- 72
2020-07-05 07:00:00 17.7 4 Sur 12 Sur 0 -- -- 81
2020-07-05 06:00:00 18.4 4 Sur 6 Sur 0 -- -- 79
2020-07-05 05:00:00 19.5 2 Sur 9 Sudeste 0 -- -- 74
2020-07-05 04:00:00 20.1 2 Sur 9 Sur 0 -- -- 71
2020-07-05 03:00:00 20.8 2 Sur 9 Sudeste 0 -- -- 66
2020-07-05 02:00:00 21.9 0 Calma 3 Sudeste 0 -- -- 45
2020-07-05 01:00:00 22.9 0 Calma 4 Este 0 -- -- 44
2020-07-05 00:00:00 24.4 4 Sudeste 9 Sur 0 -- -- 34
2020-07-04 23:00:00 26.4 5 Este 10 Nordeste 0 -- -- 25
2020-07-04 22:00:00 27.8 5 Nordeste 14 Nordeste 0 -- -- 23
2020-07-04 21:00:00 30.6 9 Nordeste 19 Nordeste 0 -- -- 20
2020-07-04 20:00:00 32.3 9 Nordeste 21 Este 0 -- -- 18
2020-07-04 19:00:00 33.3 8 Norte 21 Sudeste 0 -- -- 17
2020-07-04 18:00:00 33.6 11 Este 22 Nordeste 0 -- -- 18
2020-07-04 17:00:00 33.4 9 Este 23 Sudoeste 0 -- -- 18
2020-07-04 16:00:00 32.7 8 Este 21 Oeste 0 -- -- 19
2020-07-04 15:00:00 33.6 5 Noroeste 18 Norte 0 -- -- 18
2020-07-04 14:00:00 32.1 6 Sur 17 Noroeste 0 -- -- 18
2020-07-04 13:00:00 31.9 5 Norte 14 Noroeste 0 -- -- 19
2020-07-04 12:00:00 30.1 3 Nordeste 11 Sudoeste 0 -- -- 23
2020-07-04 11:00:00 28.2 6 Sudoeste 15 Sudoeste 0 -- -- 27
2020-07-04 10:00:00 25.9 8 Sudoeste 13 Sudoeste 0 -- -- 33
2020-07-04 09:00:00 23.4 2 Sur 6 Noroeste 0 -- -- 43
2020-07-04 08:00:00 18.5 3 Sudeste 8 Sudeste 0 -- -- 49
2020-07-04 07:00:00 15.8 5 Sudeste 8 Sur 0 -- -- 52
2020-07-04 06:00:00 15.8 3 Sudeste 5 Sudeste 0 -- -- 56
2020-07-04 05:00:00 16.9 2 Sudeste 4 Sudeste 0 -- -- 55
2020-07-04 04:00:00 17 0 Calma 5 Sudeste 0 -- -- 49
2020-07-04 03:00:00 18.2 0 Calma 5 Sur 0 -- -- 41
2020-07-04 02:00:00 19.7 0 Calma 2 Sudeste 0 -- -- 33
2020-07-04 01:00:00 20.9 2 Sudeste 9 Sudoeste 0 -- -- 30
2020-07-04 00:00:00 23 3 Sudoeste 8 Sudoeste 0 -- -- 28
2020-07-03 23:00:00 23.8 2 Nordeste 7 Nordeste 0 -- -- 26
2020-07-03 22:00:00 25.8 6 Nordeste 18 Nordeste 0 -- -- 24
2020-07-03 21:00:00 28.6 10 Norte 22 Nordeste 0 -- -- 22
2020-07-03 20:00:00 30.2 12 Nordeste 28 Nordeste 0 -- -- 20
2020-07-03 19:00:00 31.8 7 Noroeste 20 Oeste 0 -- -- 18
2020-07-03 18:00:00 32.4 9 Oeste 22 Oeste 0 -- -- 18
2020-07-03 17:00:00 31.9 6 Oeste 24 Oeste 0 -- -- 19
2020-07-03 16:00:00 31.1 10 Oeste 24 Oeste 0 -- -- 19
2020-07-03 15:00:00 31.4 12 Oeste 26 Oeste 0 -- -- 19
2020-07-03 14:00:00 30 7 Noroeste 26 Oeste 0 -- -- 23
2020-07-03 13:00:00 28.4 7 Nordeste 25 Oeste 0 -- -- 27
2020-07-03 12:00:00 28 4 Nordeste 18 Noroeste 0 -- -- 29
2020-07-03 11:00:00 27.1 3 Norte 12 Oeste 0 -- -- 29
2020-07-03 10:00:00 25.5 5 Noroeste 10 Oeste 0 -- -- 33
2020-07-03 09:00:00 22.3 2 Sudeste 5 Sudeste 0 -- -- 40
2020-07-03 08:00:00 19.1 0 Calma 3 Sur 0 -- -- 45
2020-07-03 07:00:00 14.5 0 Calma 6 Este 0 -- -- 54
2020-07-03 06:00:00 15.1 2 Sudeste 6 Sudeste 0 -- -- 50
2020-07-03 05:00:00 16.1 0 Calma 3 Sudeste 0 -- -- 47
2020-07-03 04:00:00 17.4 2 Sudeste 6 Sudeste 0 -- -- 44
2020-07-03 03:00:00 19.6 0 Calma 8 Noroeste 0 -- -- 43
2020-07-03 02:00:00 20.7 2 Noroeste 6 Noroeste 0 -- -- 37
2020-07-03 01:00:00 21.3 0 Calma 9 Norte 0 -- -- 30
2020-07-03 00:00:00 22 3 Norte 12 Norte 0 -- -- 26
2020-07-02 23:00:00 24.2 4 Noroeste 13 Noroeste 0 -- -- 24
2020-07-02 22:00:00 25.9 6 Norte 23 Noroeste 0 -- -- 22
2020-07-02 21:00:00 28.1 10 Norte 31 Noroeste 0 -- -- 21
2020-07-02 20:00:00 30.3 11 Norte 31 Noroeste 0 -- -- 20
2020-07-02 19:00:00 31.1 14 Noroeste 40 Norte 0 -- -- 19
2020-07-02 18:00:00 32.1 16 Noroeste 42 Noroeste 0 -- -- 18
2020-07-02 17:00:00 32.3 15 Noroeste 42 Noroeste 0 -- -- 17
2020-07-02 16:00:00 32 16 Noroeste 42 Oeste 0 -- -- 18
2020-07-02 15:00:00 32.2 17 Noroeste 41 Oeste 0 -- -- 20
2020-07-02 14:00:00 31.7 17 Oeste 41 Oeste 0 -- -- 22
2020-07-02 13:00:00 31.1 15 Oeste 37 Noroeste 0 -- -- 25
2020-07-02 12:00:00 29.6 12 Noroeste 32 Oeste 0 -- -- 30
2020-07-02 11:00:00 28.5 11 Noroeste 25 Noroeste 0 -- -- 32
2020-07-02 10:00:00 26.6 13 Oeste 23 Oeste 0 -- -- 37
2020-07-02 09:00:00 23.6 3 Sudoeste 10 Sur 0 -- -- 42
2020-07-02 08:00:00 20 2 Sur 6 Sudeste 0 -- -- 45
2020-07-02 07:00:00 17.2 0 Calma 5 Sudeste 0 -- -- 48
2020-07-02 06:00:00 17.5 3 Sudeste 7 Sudeste 0 -- -- 45
2020-07-02 05:00:00 17.6 3 Sudeste 5 Sudeste 0 -- -- 44
2020-07-02 04:00:00 18.4 2 Sudeste 5 Sudeste 0 -- -- 41
2020-07-02 03:00:00 19.4 2 Sudeste 6 Sudeste 0 -- -- 39
2020-07-02 02:00:00 21.4 2 Sudeste 4 Sur 0 -- -- 35
2020-07-02 01:00:00 23.3 3 Sudoeste 14 Sudoeste 0 -- -- 31
2020-07-02 00:00:00 26 11 Oeste 22 Oeste 0 -- -- 27
2020-07-01 23:00:00 27.5 13 Oeste 28 Oeste 0 -- -- 26
2020-07-01 22:00:00 28.8 13 Oeste 21 Noroeste 0 -- -- 24
2020-07-01 21:00:00 31.2 11 Noroeste 28 Oeste 0 -- -- 20
2020-07-01 20:00:00 33 14 Noroeste 29 Oeste 0 -- -- 19
2020-07-01 19:00:00 33.6 15 Oeste 34 Noroeste 0 -- -- 22
2020-07-01 18:00:00 34.1 12 Oeste 33 Oeste 0 -- -- 21
2020-07-01 17:00:00 34 17 Oeste 37 Oeste 0 -- -- 20
2020-07-01 16:00:00 33.6 15 Noroeste 43 Sudoeste 0 -- -- 23
2020-07-01 15:00:00 32.9 14 Oeste 34 Oeste 0 -- -- 25
2020-07-01 14:00:00 32.2 15 Oeste 28 Oeste 0 -- -- 26
2020-07-01 13:00:00 31 14 Oeste 29 Oeste 0 -- -- 29
2020-07-01 12:00:00 29.7 9 Noroeste 22 Oeste 0 -- -- 33
2020-07-01 11:00:00 28 11 Oeste 25 Sudoeste 0 -- -- 37
2020-07-01 10:00:00 26.3 13 Oeste 24 Sudoeste 0 -- -- 45
2020-07-01 09:00:00 23.1 10 Sudoeste 18 Sudoeste 0 -- -- 55
2020-07-01 08:00:00 20.6 8 Sudoeste 15 Sudoeste 0 -- -- 64
2020-07-01 07:00:00 19 4 Sudoeste 10 Sudoeste 0 -- -- 67
2020-07-01 06:00:00 19.6 5 Sudoeste 9 Sudoeste 0 -- -- 59
2020-07-01 05:00:00 20.2 2 Sur 8 Sudeste 0 -- -- 47
2020-07-01 04:00:00 21 3 Sudoeste 10 Sudoeste 0 -- -- 41
2020-07-01 03:00:00 21.5 4 Sudoeste 9 Sudoeste 0 -- -- 39
2020-07-01 02:00:00 22.1 2 Sudeste 6 Oeste 0 -- -- 37
2020-07-01 01:00:00 23.8 3 Oeste 16 Oeste 0 -- -- 34
2020-07-01 00:00:00 26 8 Oeste 16 Oeste 0 -- -- 30
2020-06-30 23:00:00 28.3 12 Oeste 19 Oeste 0 -- -- 26
2020-06-30 22:00:00 30.1 11 Oeste 24 Oeste 0 -- -- 23
2020-06-30 21:00:00 32.7 14 Oeste 31 Oeste 0 -- -- 20
2020-06-30 20:00:00 34.5 15 Oeste 33 Oeste 0 -- -- 21
2020-06-30 19:00:00 35.4 18 Oeste 33 Oeste 0 -- -- 20
2020-06-30 18:00:00 36.4 17 Oeste 38 Oeste 0 -- -- 19
2020-06-30 17:00:00 36.9 18 Oeste 35 Oeste 0 -- -- 19
2020-06-30 16:00:00 36.7 11 Noroeste 31 Oeste 0 -- -- 19
2020-06-30 15:00:00 36.4 13 Oeste 27 Oeste 0 -- -- 20
2020-06-30 14:00:00 36.3 8 Oeste 20 Sur 0 -- -- 21
2020-06-30 13:00:00 34.4 7 Sur 21 Sudoeste 0 -- -- 23
2020-06-30 12:00:00 33.1 4 Oeste 14 Sudoeste 0 -- -- 25
2020-06-30 11:00:00 32 5 Sudoeste 13 Sudoeste 0 -- -- 28
2020-06-30 10:00:00 29.4 5 Sudoeste 10 Sur 0 -- -- 33
2020-06-30 09:00:00 26.1 4 Sur 8 Sudeste 0 -- -- 36
2020-06-30 08:00:00 21.8 5 Sudeste 9 Sudeste 0 -- -- 43
2020-06-30 07:00:00 19.9 2 Sudeste 6 Sudeste 0 -- -- 44
2020-06-30 06:00:00 20 3 Sudeste 7 Sur 0 -- -- 45
2020-06-30 05:00:00 20.8 2 Sur 5 Sur 0 -- -- 46
2020-06-30 04:00:00 21.3 2 Sur 4 Sudeste 0 -- -- 45
2020-06-30 03:00:00 22.6 2 Sur 6 Sudoeste 0 -- -- 40
2020-06-30 02:00:00 23 3 Sur 6 Sudeste 0 -- -- 42
2020-06-30 01:00:00 24.6 2 Sur 9 Sur 0 -- -- 41
2020-06-30 00:00:00 26.6 5 Sudoeste 12 Sudoeste 0 -- -- 38
2020-06-29 23:00:00 28.2 3 Sudeste 9 Sudeste 0 -- -- 36
2020-06-29 22:00:00 30.1 2 Sudeste 14 Sudeste 0 -- -- 33
2020-06-29 21:00:00 32.8 8 Este 22 Nordeste 0 -- -- 27
2020-06-29 20:00:00 35.4 9 Noroeste 22 Sudoeste 0 -- -- 21
2020-06-29 19:00:00 36.2 7 Oeste 21 Oeste 0 -- -- 19
2020-06-29 18:00:00 36.7 13 Oeste 24 Oeste 0 -- -- 18
2020-06-29 17:00:00 36.8 9 Noroeste 21 Oeste 0 -- -- 18
2020-06-29 16:00:00 35.4 5 Norte 24 Oeste 0 -- -- 20
2020-06-29 15:00:00 34.9 6 Sur 22 Oeste 0 -- -- 22
2020-06-29 14:00:00 35 10 Oeste 26 Noroeste 0 -- -- 23
2020-06-29 13:00:00 33.9 4 Oeste 12 Sudeste 0 -- -- 25
2020-06-29 12:00:00 32.3 5 Sudoeste 12 Sudoeste 0 -- -- 28
2020-06-29 11:00:00 31.8 3 Oeste 11 Sudoeste 0 -- -- 29
2020-06-29 10:00:00 28.9 4 Sudoeste 8 Noroeste 0 -- -- 34
2020-06-29 09:00:00 24.5 2 Sudeste 5 Sudeste 0 -- -- 41
2020-06-29 08:00:00 20.6 2 Sur 4 Sur 0 -- -- 49
2020-06-29 07:00:00 17.1 0 Calma 3 Sudeste 0 -- -- 60
2020-06-29 06:00:00 17.6 2 Sudeste 4 Sudeste 0 -- -- 60
2020-06-29 05:00:00 18.7 0 Calma 3 Sudeste 0 -- -- 58
2020-06-29 04:00:00 19.3 0 Calma 4 Sudeste 0 -- -- 57
2020-06-29 03:00:00 20.9 0 Calma 2 Sudoeste 0 -- -- 51
2020-06-29 02:00:00 21.5 2 Sudeste 4 Sudeste 0 -- -- 50
2020-06-29 01:00:00 24.1 0 Calma 6 Norte 0 -- -- 42
2020-06-29 00:00:00 25.4 0 Calma 4 Sudeste 0 -- -- 39
2020-06-28 23:00:00 26.1 0 Calma 6 Nordeste 0 -- -- 34
2020-06-28 22:00:00 28.6 4 Norte 14 Norte 0 -- -- 30
2020-06-28 21:00:00 31 6 Norte 17 Norte 0 -- -- 27
2020-06-28 20:00:00 33.4 6 Noroeste 19 Noroeste 0 -- -- 23
2020-06-28 19:00:00 34 9 Oeste 22 Sudoeste 0 -- -- 22
2020-06-28 18:00:00 33.8 6 Noroeste 18 Norte 0 -- -- 22
2020-06-28 17:00:00 33.2 7 Norte 26 Oeste 0 -- -- 23
2020-06-28 16:00:00 33.7 11 Oeste 24 Oeste 0 -- -- 23
2020-06-28 15:00:00 32.7 8 Sur 26 Sudoeste 0 -- -- 25
2020-06-28 14:00:00 31.8 6 Sudoeste 19 Noroeste 0 -- -- 27
2020-06-28 13:00:00 31.2 8 Noroeste 15 Noroeste 0 -- -- 29
2020-06-28 12:00:00 30 5 Noroeste 14 Noroeste 0 -- -- 32
2020-06-28 11:00:00 29.6 4 Noroeste 11 Oeste 0 -- -- 33
2020-06-28 10:00:00 26.9 2 Nordeste 5 Sudoeste 0 -- -- 39
2020-06-28 09:00:00 23.1 2 Sur 4 Sudeste 0 -- -- 43
2020-06-28 08:00:00 19.7 0 Calma 3 Sudeste 0 -- -- 50
2020-06-28 07:00:00 15.6 0 Calma 5 Sudeste 0 -- -- 60
2020-06-28 06:00:00 16.3 0 Calma 4 Sudeste 0 -- -- 58
2020-06-28 05:00:00 16.6 0 Calma 5 Sudeste 0 -- -- 57
2020-06-28 04:00:00 18.4 0 Calma 4 Sudeste 0 -- -- 52
2020-06-28 03:00:00 19.1 0 Calma 3 Sudeste 0 -- -- 50
2020-06-28 02:00:00 20.8 0 Calma 5 Oeste 0 -- -- 46
2020-06-28 01:00:00 22.6 2 Noroeste 5 Noroeste 0 -- -- 42
2020-06-28 00:00:00 23.6 3 Noroeste 7 Norte 0 -- -- 40
2020-06-27 23:00:00 25 2 Norte 7 Nordeste 0 -- -- 36
2020-06-27 22:00:00 26.7 3 Norte 14 Norte 0 -- -- 32
2020-06-27 21:00:00 28.9 6 Noroeste 19 Norte 0 -- -- 29
2020-06-27 20:00:00 30.7 9 Noroeste 25 Noroeste 0 -- -- 27
2020-06-27 19:00:00 31.3 7 Noroeste 23 Oeste 0 -- -- 26
2020-06-27 18:00:00 31.3 9 Noroeste 23 Noroeste 0 -- -- 25
2020-06-27 17:00:00 31.7 6 Oeste 28 Noroeste 0 -- -- 25
2020-06-27 16:00:00 30.5 9 Noroeste 28 Oeste 0 -- -- 26
2020-06-27 15:00:00 30.8 10 Oeste 24 Oeste 0 -- -- 25
2020-06-27 14:00:00 29.1 7 Noroeste 22 Oeste 0 -- -- 26
2020-06-27 13:00:00 28 8 Noroeste 20 Oeste 0 -- -- 27
2020-06-27 12:00:00 26.2 8 Norte 19 Noroeste 0 -- -- 30
2020-06-27 11:00:00 25.7 6 Noroeste 15 Noroeste 0 -- -- 31
2020-06-27 10:00:00 23.7 5 Oeste 12 Oeste 0 -- -- 38
2020-06-27 09:00:00 20.9 2 Oeste 5 Sudoeste 0 -- -- 41
2020-06-27 08:00:00 17.1 2 Sudeste 4 Sudeste 0 -- -- 48
2020-06-27 07:00:00 13.7 0 Calma 4 Sudeste 0 -- -- 55
2020-06-27 06:00:00 14.4 2 Sudeste 4 Sudeste 0 -- -- 52
2020-06-27 05:00:00 15.4 3 Sudeste 4 Sur 0 -- -- 48
2020-06-27 04:00:00 17.5 0 Calma 4 Oeste 0 -- -- 42
2020-06-27 03:00:00 17.5 0 Calma 12 Oeste 0 -- -- 41
2020-06-27 02:00:00 19.9 6 Oeste 11 Noroeste 0 -- -- 34
2020-06-27 01:00:00 20.5 6 Oeste 9 Noroeste 0 -- -- 33
2020-06-27 00:00:00 22.3 2 Noroeste 12 Noroeste 0 -- -- 31
2020-06-26 23:00:00 23.8 5 Noroeste 17 Noroeste 0 -- -- 31
2020-06-26 22:00:00 25.1 6 Noroeste 27 Noroeste 0 -- -- 33
2020-06-26 21:00:00 27.1 11 Noroeste 29 Oeste 0 -- -- 30
2020-06-26 20:00:00 29.8 14 Oeste 34 Oeste 0 -- -- 26
2020-06-26 19:00:00 30.5 17 Oeste 31 Oeste 0 -- -- 26
2020-06-26 18:00:00 31.2 15 Oeste 35 Noroeste 0 -- -- 22
2020-06-26 17:00:00 31.3 14 Oeste 32 Oeste 0 -- -- 24
2020-06-26 16:00:00 31.3 13 Oeste 30 Oeste 0 -- -- 27
2020-06-26 15:00:00 31.9 14 Oeste 30 Oeste 0 -- -- 26
2020-06-26 14:00:00 30.5 14 Oeste 23 Oeste 0 -- -- 31
2020-06-26 13:00:00 29.3 6 Oeste 20 Sudoeste 0 -- -- 35
2020-06-26 12:00:00 28.7 5 Oeste 16 Oeste 0 -- -- 40
2020-06-26 11:00:00 27.6 6 Oeste 15 Oeste 0 -- -- 42
2020-06-26 10:00:00 25.5 6 Oeste 18 Oeste 0 -- -- 49
2020-06-26 09:00:00 22.1 9 Sudoeste 16 Sudoeste 0 -- -- 65
2020-06-26 08:00:00 19.5 6 Sudoeste 12 Sudoeste 0 -- -- 74
2020-06-26 07:00:00 18.4 3 Sudoeste 9 Sudeste 0 -- -- 75
2020-06-26 06:00:00 19.1 3 Sur 18 Oeste 0 -- -- 71
2020-06-26 05:00:00 19.8 9 Oeste 19 Sudoeste 0 -- -- 67
2020-06-26 04:00:00 20.8 8 Oeste 16 Oeste 0 -- -- 60
2020-06-26 03:00:00 21.6 6 Sudoeste 12 Sudoeste 0 -- -- 53
2020-06-26 02:00:00 22.4 4 Sur 10 Sudoeste 0 -- -- 47
2020-06-26 01:00:00 23.5 6 Sudoeste 14 Sudoeste 0 -- -- 42
2020-06-26 00:00:00 24.3 0 Calma 12 Sur 0 -- -- 37
2020-06-25 23:00:00 25.3 3 Sur 14 Sur 0 -- -- 32
2020-06-25 22:00:00 28.2 8 Sur 13 Oeste 0 -- -- 30
2020-06-25 21:00:00 31 9 Noroeste 24 Noroeste 0 -- -- 21
2020-06-25 20:00:00 33 11 Noroeste 32 Oeste 0 -- -- 16
2020-06-25 19:00:00 33.9 14 Oeste 34 Oeste 0 -- -- 18
2020-06-25 18:00:00 35 14 Oeste 29 Oeste 0 -- -- 18
2020-06-25 17:00:00 33.9 6 Sudeste 26 Sudoeste 0 -- -- 20
2020-06-25 16:00:00 34.4 7 Oeste 24 Oeste 0 -- -- 20
2020-06-25 15:00:00 34.2 10 Oeste 27 Oeste 0 -- -- 20
2020-06-25 14:00:00 32.6 7 Sur 23 Sur 0 -- -- 21
2020-06-25 13:00:00 31.7 8 Noroeste 19 Sur 0 -- -- 23
2020-06-25 12:00:00 30.1 8 Sudoeste 18 Sudoeste 0 -- -- 27
2020-06-25 11:00:00 29.6 4 Sudoeste 12 Oeste 0 -- -- 28
2020-06-25 10:00:00 27.5 4 Sudoeste 9 Sur 0 -- -- 32
2020-06-25 09:00:00 22.9 5 Sur 8 Sur 0 -- -- 41
2020-06-25 08:00:00 20 2 Sudoeste 8 Sudoeste 0 -- -- 46
2020-06-25 07:00:00 18 2 Oeste 9 Sudeste 0 -- -- 50
2020-06-25 06:00:00 17.3 5 Sudeste 9 Sudeste 0 -- -- 51
2020-06-25 05:00:00 19.2 0 Calma 7 Sur 0 -- -- 46
2020-06-25 04:00:00 19.7 2 Oeste 15 Sur 0 -- -- 45
2020-06-25 03:00:00 20.3 5 Sur 12 Sur 0 -- -- 44
2020-06-25 02:00:00 21.7 8 Sur 20 Sur 0 -- -- 41
2020-06-25 01:00:00 22.3 7 Sur 27 Sur 0 -- -- 38
2020-06-25 00:00:00 23.7 14 Sur 28 Sur 0 -- -- 35
2020-06-24 23:00:00 25.2 12 Sur 27 Sur 0 -- -- 32
2020-06-24 22:00:00 26.3 6 Sur 23 Sur 0 -- -- 29
2020-06-24 21:00:00 28.4 10 Sur 35 Sur 0 -- -- 25
2020-06-24 20:00:00 30.8 12 Sudeste 29 Sur 0 -- -- 22
2020-06-24 19:00:00 31.5 17 Sudeste 35 Sudeste 0 -- -- 21
2020-06-24 18:00:00 32 14 Sudeste 31 Este 0 -- -- 23
2020-06-24 17:00:00 31.1 17 Sudeste 29 Sudeste 0 -- -- 28
2020-06-24 16:00:00 30.8 14 Este 27 Este 0 -- -- 32
2020-06-24 15:00:00 28.5 13 Este 27 Este 0 -- -- 36
2020-06-24 14:00:00 31.7 17 Nordeste 31 Nordeste 0 -- -- 24
2020-06-24 13:00:00 31.7 11 Nordeste 23 Nordeste 0 -- -- 23
2020-06-24 12:00:00 30.7 5 Oeste 13 Sudoeste 0 -- -- 25
2020-06-24 11:00:00 29.4 6 Oeste 14 Oeste 0 -- -- 29
2020-06-24 10:00:00 27.7 6 Sudoeste 12 Sur 0 -- -- 34
2020-06-24 09:00:00 21.9 5 Sudeste 13 Sur 0 -- -- 50
2020-06-24 08:00:00 19.3 6 Sudeste 15 Este 0 -- -- 56
2020-06-24 07:00:00 21.1 6 Nordeste 24 Noroeste 0 -- -- 48
2020-06-24 06:00:00 21.3 6 Este 10 Sudeste 0 -- -- 44
2020-06-24 05:00:00 20.6 3 Sur 8 Sur 0 -- -- 47
2020-06-24 04:00:00 21.2 3 Sur 8 Sudeste 0 -- -- 47
2020-06-24 03:00:00 22.4 3 Sudoeste 17 Sur 0 -- -- 45
2020-06-24 02:00:00 23 4 Sudeste 15 Sudeste 0 -- -- 45
2020-06-24 01:00:00 23.4 5 Sur 18 Sur 0 -- -- 46
2020-06-24 00:00:00 24.3 6 Sudeste 18 Sudoeste 0 -- -- 46
2020-06-23 23:00:00 25.4 8 Sudeste 16 Sudeste 0 -- -- 42
2020-06-23 22:00:00 27.2 5 Sudeste 22 Sudeste 0 -- -- 35
2020-06-23 21:00:00 29.8 14 Sur 32 Sur 0 -- -- 28
2020-06-23 20:00:00 31.8 17 Sur 31 Sur 0 -- -- 25
2020-06-23 19:00:00 33.2 13 Sur 32 Sudeste 0 -- -- 23
2020-06-23 18:00:00 33 9 Sudeste 23 Sudeste 0 -- -- 23
2020-06-23 17:00:00 34.2 7 Sudoeste 19 Sudoeste 0 -- -- 21
2020-06-23 16:00:00 36.4 5 Oeste 13 Sudoeste 0 -- -- 19
2020-06-23 15:00:00 34.2 7 Este 15 Este 0 -- -- 20
2020-06-23 14:00:00 33.3 9 Nordeste 16 Este 0 -- -- 21
2020-06-23 13:00:00 32.2 7 Nordeste 16 Nordeste 0 -- -- 22
2020-06-23 12:00:00 32.5 2 Noroeste 10 Noroeste 0 -- -- 23
2020-06-23 11:00:00 30.9 5 Sudoeste 13 Sur 0 -- -- 24
2020-06-23 10:00:00 28.4 6 Sur 12 Sudeste 0 -- -- 31
2020-06-23 09:00:00 24.3 5 Sur 13 Sur 0 -- -- 41
2020-06-23 08:00:00 20 5 Sur 8 Sur 0 -- -- 51
2020-06-23 07:00:00 17.9 3 Sudoeste 8 Sudeste 0 -- -- 52
2020-06-23 06:00:00 17.5 2 Sur 6 Sudeste 0 -- -- 54
2020-06-23 05:00:00 18.1 4 Sudeste 8 Sudeste 0 -- -- 54
2020-06-23 04:00:00 19.5 3 Sudeste 8 Sur 0 -- -- 52
2020-06-23 03:00:00 20.1 4 Sur 14 Sudeste 0 -- -- 53
2020-06-23 02:00:00 20.8 4 Sur 15 Sudeste 0 -- -- 52
2020-06-23 01:00:00 21.8 4 Sudeste 15 Sudeste 0 -- -- 49
2020-06-23 00:00:00 22.7 6 Sur 20 Sur 0 -- -- 47
2020-06-22 23:00:00 23.6 10 Sur 23 Sudeste 0 -- -- 45
2020-06-22 22:00:00 25.9 10 Sur 29 Sur 0 -- -- 40
2020-06-22 21:00:00 28.5 18 Sudeste 33 Sudeste 0 -- -- 34
2020-06-22 20:00:00 31.2 14 Sudeste 32 Este 0 -- -- 32
2020-06-22 19:00:00 32.3 18 Este 35 Este 0 -- -- 26
2020-06-22 18:00:00 33.5 16 Este 30 Sudeste 0 -- -- 24
2020-06-22 17:00:00 34.6 10 Oeste 21 Oeste 0 -- -- 19
2020-06-22 16:00:00 34 4 Sur 25 Sudeste 0 -- -- 21
2020-06-22 15:00:00 34 5 Oeste 22 Sudeste 0 -- -- 21
2020-06-22 14:00:00 33.1 7 Sudeste 25 Este 0 -- -- 22
2020-06-22 13:00:00 32.2 8 Sudeste 22 Sur 0 -- -- 24
2020-06-22 12:00:00 30.9 9 Sur 24 Sur 0 -- -- 29
2020-06-22 11:00:00 29.1 12 Sudeste 26 Sudeste 0 -- -- 34
2020-06-22 10:00:00 26.6 11 Sudeste 30 Sudeste 0 -- -- 40
2020-06-22 09:00:00 24.4 9 Sudeste 27 Sur 0 -- -- 46
2020-06-22 08:00:00 20.3 3 Sur 6 Sur 0 -- -- 55
2020-06-22 07:00:00 16.8 3 Sudeste 7 Sudeste 0 -- -- 66
2020-06-22 06:00:00 16.4 4 Sudoeste 7 Sudoeste 0 -- -- 55
2020-06-22 05:00:00 17.2 0 Calma 3 Este 0 -- -- 46
2020-06-22 04:00:00 17.4 0 Calma 6 Sudoeste 0 -- -- 45
2020-06-22 03:00:00 19.5 0 Calma 4 Nordeste 0 -- -- 39
2020-06-22 02:00:00 19.5 0 Calma 5 Sudeste 0 -- -- 39
2020-06-22 01:00:00 20.4 2 Sur 5 Sur 0 -- -- 38
2020-06-22 00:00:00 22.3 0 Calma 3 Sur 0 -- -- 34
2020-06-21 23:00:00 24.1 0 Calma 4 Nordeste 0 -- -- 30
2020-06-21 22:00:00 26.7 2 Nordeste 12 Norte 0 -- -- 26
2020-06-21 21:00:00 29.8 5 Norte 18 Norte 0 -- -- 21
2020-06-21 20:00:00 32.1 6 Noroeste 20 Norte 0 -- -- 19
2020-06-21 19:00:00 32.3 8 Norte 26 Norte 0 -- -- 18
2020-06-21 18:00:00 32.9 6 Noroeste 21 Noroeste 0 -- -- 18
2020-06-21 17:00:00 32.5 10 Noroeste 22 Noroeste 0 -- -- 18
2020-06-21 16:00:00 32.4 10 Norte 23 Oeste 0 -- -- 18
2020-06-21 15:00:00 31.4 8 Norte 22 Noroeste 0 -- -- 21
2020-06-21 14:00:00 31.1 6 Noroeste 26 Norte 0 -- -- 21
2020-06-21 13:00:00 30.6 9 Noroeste 26 Oeste 0 -- -- 23
2020-06-21 12:00:00 29.2 9 Oeste 18 Norte 0 -- -- 24
2020-06-21 11:00:00 28.3 6 Oeste 15 Oeste 0 -- -- 27
2020-06-21 10:00:00 26.7 4 Noroeste 11 Oeste 0 -- -- 28
2020-06-21 09:00:00 23.1 0 Calma 3 Sur 0 -- -- 32
2020-06-21 08:00:00 17.8 2 Sudeste 3 Sudeste 0 -- -- 41
2020-06-21 07:00:00 13.5 0 Calma 4 Sudeste 0 -- -- 52
2020-06-21 06:00:00 14.2 0 Calma 3 Sur 0 -- -- 51
2020-06-21 05:00:00 14.6 0 Calma 4 Sudeste 0 -- -- 49
2020-06-21 04:00:00 15.2 2 Sudeste 4 Sur 0 -- -- 48
2020-06-21 03:00:00 17.1 0 Calma 2 Este 0 -- -- 44
2020-06-21 02:00:00 17.8 0 Calma 3 Sudeste 0 -- -- 43
2020-06-21 01:00:00 19.7 0 Calma 3 Norte 0 -- -- 38
2020-06-21 00:00:00 22.1 0 Calma 6 Norte 0 -- -- 31
2020-06-20 23:00:00 23.5 0 Calma 6 Norte 0 -- -- 30
2020-06-20 22:00:00 25.4 3 Norte 16 Norte 0 -- -- 27
2020-06-20 21:00:00 28.3 8 Norte 18 Norte 0 -- -- 23
2020-06-20 20:00:00 30.5 9 Norte 31 Oeste 0 -- -- 20
2020-06-20 19:00:00 31.3 10 Noroeste 26 Noroeste 0 -- -- 18
2020-06-20 18:00:00 31.3 10 Noroeste 30 Noroeste 0 -- -- 19
2020-06-20 17:00:00 31.6 6 Noroeste 24 Oeste 0 -- -- 19
2020-06-20 16:00:00 30.9 8 Noroeste 24 Oeste 0 -- -- 19
2020-06-20 15:00:00 30.7 8 Noroeste 24 Oeste 0 -- -- 19
2020-06-20 14:00:00 29.2 11 Oeste 21 Oeste 0 -- -- 21
2020-06-20 13:00:00 29.2 10 Oeste 25 Oeste 0 -- -- 23
2020-06-20 12:00:00 27.4 5 Sur 16 Oeste 0 -- -- 27
2020-06-20 11:00:00 27 4 Sudeste 11 Noroeste 0 -- -- 27
2020-06-20 10:00:00 25.2 3 Oeste 5 Noroeste 0 -- -- 30
2020-06-20 09:00:00 20.7 3 Sur 6 Sudeste 0 -- -- 45
2020-06-20 08:00:00 16.7 0 Calma 4 Sudeste 0 -- -- 52
2020-06-20 07:00:00 12.5 2 Sudeste 4 Sudeste 0 -- -- 63
2020-06-20 06:00:00 13.2 2 Sudeste 4 Sudeste 0 -- -- 60
2020-06-20 05:00:00 13.9 2 Este 4 Nordeste 0 -- -- 56
2020-06-20 04:00:00 14.5 3 Sudeste 5 Sudeste 0 -- -- 54
2020-06-20 03:00:00 15.9 0 Calma 8 Sudeste 0 -- -- 50
2020-06-20 02:00:00 16.1 2 Sudeste 5 Sudeste 0 -- -- 49
2020-06-20 01:00:00 17.9 3 Sudeste 9 Oeste 0 -- -- 45
2020-06-20 00:00:00 20.6 5 Oeste 10 Oeste 0 -- -- 36
2020-06-19 23:00:00 21.9 0 Calma 5 Norte 0 -- -- 36
2020-06-19 22:00:00 24.2 2 Noroeste 12 Noroeste 0 -- -- 31
2020-06-19 21:00:00 26.3 4 Noroeste 21 Oeste 0 -- -- 28
2020-06-19 20:00:00 28.5 10 Noroeste 20 Oeste 0 -- -- 25
2020-06-19 19:00:00 28.1 5 Noroeste 28 Noroeste 0 -- -- 26
2020-06-19 18:00:00 29.2 5 Noroeste 25 Oeste 0 -- -- 24
2020-06-19 17:00:00 28.9 9 Noroeste 24 Noroeste 0 -- -- 24
2020-06-19 16:00:00 28.3 10 Noroeste 34 Noroeste 0 -- -- 25
2020-06-19 15:00:00 27.9 9 Noroeste 26 Oeste 0 -- -- 27
2020-06-19 14:00:00 28 8 Sudoeste 25 Oeste 0 -- -- 28
2020-06-19 13:00:00 27.1 9 Oeste 20 Oeste 0 -- -- 30
2020-06-19 12:00:00 25.8 6 Oeste 22 Oeste 0 -- -- 33
2020-06-19 11:00:00 23.9 10 Oeste 18 Oeste 0 -- -- 37
2020-06-19 10:00:00 21.3 9 Oeste 18 Sudoeste 0 -- -- 44
2020-06-19 09:00:00 18.2 8 Sudoeste 19 Oeste 0 -- -- 54
2020-06-19 08:00:00 15.8 5 Sudoeste 11 Sudoeste 0 -- -- 58
2020-06-19 07:00:00 13.1 3 Sudeste 5 Sudeste 0 -- -- 64
2020-06-19 06:00:00 13.8 2 Sudeste 7 Sudeste 0 -- -- 61
2020-06-19 05:00:00 14.5 3 Sur 6 Sur 0 -- -- 54
2020-06-19 04:00:00 15 3 Sur 6 Sudoeste 0 -- -- 54
2020-06-19 03:00:00 17 2 Sudoeste 9 Oeste 0 -- -- 46
2020-06-19 02:00:00 16.9 3 Sudoeste 6 Sudoeste 0 -- -- 46
2020-06-19 01:00:00 17.6 2 Sur 5 Sudoeste 0 -- -- 45
2020-06-19 00:00:00 19.8 0 Calma 5 Norte 0 -- -- 39
2020-06-18 23:00:00 20.4 3 Norte 8 Norte 0 -- -- 38
2020-06-18 22:00:00 22.4 3 Norte 11 Norte 0 -- -- 35
2020-06-18 21:00:00 25.3 6 Norte 19 Noroeste 0 -- -- 27
2020-06-18 20:00:00 25.6 5 Oeste 18 Oeste 0 -- -- 26
2020-06-18 19:00:00 26.8 8 Oeste 19 Noroeste 0 -- -- 24
2020-06-18 18:00:00 27.9 12 Noroeste 26 Oeste 0 -- -- 23
2020-06-18 17:00:00 28.9 10 Noroeste 30 Sudoeste 0 -- -- 23
2020-06-18 16:00:00 28 5 Sudoeste 32 Oeste 0 -- -- 24
2020-06-18 15:00:00 27.8 8 Norte 26 Oeste 0 -- -- 24
2020-06-18 14:00:00 26.7 9 Oeste 39 Noroeste 0 -- -- 26
2020-06-18 13:00:00 25.4 7 Noroeste 23 Oeste 0 -- -- 29
2020-06-18 12:00:00 24.7 10 Oeste 25 Noroeste 0 -- -- 31
2020-06-18 11:00:00 23.9 5 Noroeste 17 Oeste 0 -- -- 30
2020-06-18 10:00:00 21.7 8 Oeste 15 Oeste 0 -- -- 35
2020-06-18 09:00:00 18.3 3 Sudoeste 5 Sudoeste 0 -- -- 38
2020-06-18 08:00:00 13.9 2 Sudeste 4 Sudeste 0 -- -- 50
2020-06-18 07:00:00 9.9 0 Calma 4 Sudeste 0 -- -- 60
2020-06-18 06:00:00 9.8 0 Calma 3 Sur 0 -- -- 61
2020-06-18 05:00:00 10.8 0 Calma 3 Sur 0 -- -- 57
2020-06-18 04:00:00 11.3 0 Calma 5 Sudeste 0 -- -- 55
2020-06-18 03:00:00 12 0 Calma 4 Sudeste 0 -- -- 53
2020-06-18 02:00:00 13.2 0 Calma 4 Sudeste 0 -- -- 49
2020-06-18 01:00:00 14.3 2 Sudeste 4 Sudeste 0 -- -- 46
2020-06-18 00:00:00 16.2 0 Calma 5 Sudeste 0 -- -- 40
2020-06-17 23:00:00 18.4 0 Calma 8 Norte 0 -- -- 34
2020-06-17 22:00:00 20.5 4 Norte 16 Norte 0 -- -- 30
2020-06-17 21:00:00 22.5 6 Norte 26 Noroeste 0 -- -- 26
2020-06-17 20:00:00 24.7 9 Noroeste 33 Noroeste 0 -- -- 24
2020-06-17 19:00:00 25 17 Noroeste 33 Noroeste 0 -- -- 23
2020-06-17 18:00:00 25.4 12 Noroeste 36 Oeste 0 -- -- 20
2020-06-17 17:00:00 25.8 14 Noroeste 37 Noroeste 0 -- -- 23
2020-06-17 16:00:00 25.3 18 Noroeste 41 Noroeste 0 -- -- 27
2020-06-17 15:00:00 24.8 15 Noroeste 37 Noroeste 0 -- -- 30
2020-06-17 14:00:00 23.6 12 Oeste 39 Noroeste 0 -- -- 37
2020-06-17 13:00:00 23 17 Oeste 32 Oeste 0 -- -- 41
2020-06-17 12:00:00 22.3 13 Noroeste 30 Oeste 0 -- -- 43
2020-06-17 11:00:00 20.8 13 Oeste 28 Noroeste 0 -- -- 47
2020-06-17 10:00:00 19.5 11 Oeste 19 Noroeste 0 -- -- 52
2020-06-17 09:00:00 18.1 8 Oeste 17 Oeste 0 -- -- 58
2020-06-17 08:00:00 15.9 0 Calma 4 Sudeste 0 -- -- 64
2020-06-17 07:00:00 11.1 0 Calma 4 Sudeste 0 -- -- 78
2020-06-17 06:00:00 11.7 3 Sudeste 4 Sudeste 0 -- -- 74
2020-06-17 05:00:00 12.1 0 Calma 4 Sudeste 0 -- -- 72
2020-06-17 04:00:00 13.5 0 Calma 6 Oeste 0 -- -- 68
2020-06-17 03:00:00 14.8 3 Sudoeste 6 Sudoeste 0 -- -- 63
2020-06-17 02:00:00 15.9 0 Calma 6 Norte 0 -- -- 59
2020-06-17 01:00:00 17.3 3 Norte 16 Noroeste 0 -- -- 55
2020-06-17 00:00:00 18.5 6 Noroeste 21 Noroeste 0 -- -- 51
2020-06-16 23:00:00 19.7 9 Noroeste 21 Noroeste 0 -- -- 47
2020-06-16 22:00:00 20.9 10 Noroeste 28 Norte 0 -- -- 43
2020-06-16 21:00:00 22.4 13 Noroeste 39 Oeste 0 -- -- 39
2020-06-16 20:00:00 23.8 13 Noroeste 35 Noroeste 0 -- -- 36
2020-06-16 19:00:00 24.9 15 Noroeste 36 Noroeste 0 -- -- 34
2020-06-16 18:00:00 24.9 14 Noroeste 45 Noroeste 0 -- -- 34
2020-06-16 17:00:00 24.9 15 Noroeste 44 Oeste 0 -- -- 34
2020-06-16 16:00:00 24.4 16 Noroeste 40 Oeste 0 -- -- 34
2020-06-16 15:00:00 25.4 13 Noroeste 36 Noroeste 0 -- -- 29
2020-06-16 14:00:00 23.7 15 Noroeste 38 Noroeste 0 -- -- 37
2020-06-16 13:00:00 24 16 Oeste 33 Noroeste 0 -- -- 37
2020-06-16 12:00:00 23 13 Oeste 28 Oeste 0 -- -- 41
2020-06-16 11:00:00 21.7 11 Noroeste 21 Noroeste 0 -- -- 43
2020-06-16 10:00:00 20.1 6 Noroeste 21 Noroeste 0 -- -- 48
2020-06-16 09:00:00 19.2 9 Noroeste 18 Oeste 0 -- -- 50
2020-06-16 08:00:00 16.5 2 Sur 9 Noroeste 0 -- -- 51
2020-06-16 07:00:00 14.5 3 Oeste 8 Noroeste 0 -- -- 56
2020-06-16 06:00:00 15.4 5 Oeste 11 Noroeste 0 -- -- 50
2020-06-16 05:00:00 16.3 6 Noroeste 10 Noroeste 0 -- -- 45
2020-06-16 04:00:00 16.8 5 Oeste 11 Oeste 0 -- -- 43
2020-06-16 03:00:00 17 6 Oeste 12 Oeste 0 -- -- 42
2020-06-16 02:00:00 17.8 5 Oeste 9 Oeste 0 -- -- 39
2020-06-16 01:00:00 18.5 5 Oeste 9 Oeste 0 -- -- 36
2020-06-16 00:00:00 19.1 6 Oeste 10 Oeste 0 -- -- 35
2020-06-15 23:00:00 20.4 2 Norte 12 Noroeste 0 -- -- 34
2020-06-15 22:00:00 21.9 4 Norte 24 Norte 0 -- -- 33
2020-06-15 21:00:00 24.1 11 Noroeste 24 Norte 0 -- -- 29
2020-06-15 20:00:00 25.7 8 Noroeste 32 Noroeste 0 -- -- 27
2020-06-15 19:00:00 26.9 11 Noroeste 33 Norte 0 -- -- 24
2020-06-15 18:00:00 27.2 18 Oeste 31 Noroeste 0 -- -- 26
2020-06-15 17:00:00 26.9 11 Noroeste 31 Noroeste 0 -- -- 25
2020-06-15 16:00:00 27.1 10 Noroeste 29 Noroeste 0 -- -- 27
2020-06-15 15:00:00 26.2 9 Oeste 30 Noroeste 0 -- -- 28
2020-06-15 14:00:00 24.8 14 Oeste 32 Oeste 0 -- -- 32
2020-06-15 13:00:00 23.8 12 Noroeste 28 Noroeste 0 -- -- 35
2020-06-15 12:00:00 22.5 12 Noroeste 24 Oeste 0 -- -- 38
2020-06-15 11:00:00 21.4 10 Noroeste 27 Oeste 0 -- -- 41
2020-06-15 10:00:00 20.1 10 Oeste 22 Oeste 0 -- -- 45
2020-06-15 09:00:00 17.1 8 Oeste 16 Oeste 0 -- -- 56
2020-06-15 08:00:00 14.1 0 Calma 4 Sudeste 0 -- -- 64
2020-06-15 07:00:00 9.8 0 Calma 5 Sudeste 0 -- -- 75
2020-06-15 06:00:00 9.7 3 Sudeste 5 Sudeste 0 -- -- 68
2020-06-15 05:00:00 10.6 3 Sudeste 4 Sudeste 0 -- -- 62
2020-06-15 04:00:00 11.4 2 Sudeste 5 Sudeste 0 -- -- 60
2020-06-15 03:00:00 13.1 2 Sur 4 Sur 0 -- -- 53
2020-06-15 02:00:00 14.4 0 Calma 6 Oeste 0 -- -- 50
2020-06-15 01:00:00 16 0 Calma 5 Noroeste 0 -- -- 44
2020-06-15 00:00:00 17.3 2 Norte 6 Noroeste 0 -- -- 42
2020-06-14 23:00:00 18.3 2 Norte 9 Norte 0 -- -- 40
2020-06-14 22:00:00 20.5 2 Norte 19 Norte 0 -- -- 35
2020-06-14 21:00:00 22.6 8 Noroeste 26 Norte 0 -- -- 30
2020-06-14 20:00:00 24.4 12 Noroeste 33 Noroeste 0 -- -- 29
2020-06-14 19:00:00 25.1 10 Norte 30 Noroeste 0 -- -- 28
2020-06-14 18:00:00 25.2 12 Noroeste 29 Noroeste 0 -- -- 28
2020-06-14 17:00:00 24.9 11 Noroeste 35 Oeste 0 -- -- 28
2020-06-14 16:00:00 24.7 11 Noroeste 26 Noroeste 0 -- -- 28
2020-06-14 15:00:00 24.4 9 Noroeste 24 Norte 0 -- -- 30
2020-06-14 14:00:00 23.4 8 Noroeste 28 Oeste 0 -- -- 32
2020-06-14 13:00:00 21.9 8 Noroeste 22 Noroeste 0 -- -- 37
2020-06-14 12:00:00 21.4 6 Noroeste 14 Noroeste 0 -- -- 38
2020-06-14 11:00:00 20.4 3 Sudeste 17 Noroeste 0 -- -- 42
2020-06-14 10:00:00 18.1 4 Nordeste 8 Norte 0 -- -- 47
2020-06-14 09:00:00 13.7 0 Calma 3 Sudoeste 0 -- -- 62
2020-06-14 08:00:00 12.4 0 Calma 4 Sudoeste 0 -- -- 65
2020-06-14 07:00:00 11.7 2 Sudoeste 3 Sudoeste 0 -- -- 65
2020-06-14 06:00:00 11.3 0 Calma 3 Sur 0 -- -- 66
2020-06-14 05:00:00 11.1 0 Calma 2 Sudeste 0 -- -- 65
2020-06-14 04:00:00 11.4 0 Calma 4 Sudeste 0 -- -- 62
2020-06-14 03:00:00 11.5 2 Sudeste 4 Sudeste 0 -- -- 62
2020-06-14 02:00:00 11.7 0 Calma 5 Sudeste 0 -- -- 60
2020-06-14 01:00:00 13.2 0 Calma 3 Sudeste 0 -- -- 55
2020-06-14 00:00:00 15.1 0 Calma 4 Norte 0 -- -- 49
2020-06-13 23:00:00 16.3 0 Calma 8 Norte 0 -- -- 44
2020-06-13 22:00:00 18.2 3 Norte 22 Norte 0 -- -- 39
2020-06-13 21:00:00 20.2 9 Noroeste 28 Noroeste 0 -- -- 34
2020-06-13 20:00:00 22.4 11 Noroeste 28 Oeste 0 -- -- 29
2020-06-13 19:00:00 23 10 Noroeste 32 Oeste 0 -- -- 28
2020-06-13 18:00:00 23.1 10 Noroeste 31 Noroeste 0 -- -- 28
2020-06-13 17:00:00 22.7 12 Oeste 32 Oeste 0 -- -- 28
2020-06-13 16:00:00 22.2 9 Noroeste 31 Noroeste 0 -- -- 30
2020-06-13 15:00:00 21.6 13 Oeste 28 Noroeste 0 -- -- 31
2020-06-13 14:00:00 20.3 8 Noroeste 27 Oeste 0 -- -- 35
2020-06-13 13:00:00 18.8 11 Oeste 30 Oeste 0 -- -- 39
2020-06-13 12:00:00 17.6 9 Noroeste 31 Norte 0 -- -- 45
2020-06-13 11:00:00 16.5 10 Noroeste 27 Oeste 0 -- -- 48
2020-06-13 10:00:00 15.2 13 Noroeste 33 Noroeste 0 -- -- 56
2020-06-13 09:00:00 13.5 12 Noroeste 25 Noroeste 0 -- -- 66
2020-06-13 08:00:00 11.7 10 Noroeste 20 Noroeste 0 -- -- 76
2020-06-13 07:00:00 9.7 7 Oeste 18 Oeste 0 -- -- 82
2020-06-13 06:00:00 9.9 9 Oeste 22 Noroeste 0 -- -- 81
2020-06-13 05:00:00 10.4 11 Noroeste 19 Noroeste 0 -- -- 77
2020-06-13 04:00:00 10.8 8 Noroeste 21 Oeste 0 -- -- 72
2020-06-13 03:00:00 11.4 9 Noroeste 19 Noroeste 0 -- -- 69
2020-06-13 02:00:00 11.8 9 Noroeste 33 Noroeste 0 -- -- 65
2020-06-13 01:00:00 13.3 12 Noroeste 30 Noroeste 0 -- -- 61
2020-06-13 00:00:00 15.1 9 Noroeste 26 Oeste 0 -- -- 46
2020-06-12 23:00:00 15.1 6 Noroeste 18 Noroeste 0 -- -- 46
2020-06-12 22:00:00 15.7 6 Noroeste 28 Noroeste 0 -- -- 45
2020-06-12 21:00:00 17 10 Noroeste 37 Noroeste 0 -- -- 41
2020-06-12 20:00:00 18.4 14 Noroeste 33 Noroeste 0 -- -- 38
2020-06-12 19:00:00 19 15 Noroeste 40 Noroeste 0 -- -- 37
2020-06-12 18:00:00 19.1 17 Noroeste 42 Noroeste 0 -- -- 37
2020-06-12 17:00:00 19.2 19 Noroeste 40 Oeste 0 -- -- 36
2020-06-12 16:00:00 19.4 22 Noroeste 49 Oeste 0 -- -- 35
2020-06-12 15:00:00 19.4 22 Oeste 46 Oeste 0 -- -- 36
2020-06-12 14:00:00 18.4 21 Oeste 39 Oeste 0 -- -- 37
2020-06-12 13:00:00 16.6 17 Noroeste 39 Oeste 0 -- -- 40
2020-06-12 12:00:00 15.9 21 Oeste 41 Oeste 0 -- -- 42
2020-06-12 11:00:00 14 14 Noroeste 46 Noroeste 0 -- -- 48
2020-06-12 10:00:00 11.9 18 Noroeste 41 Noroeste 0 -- -- 61
2020-06-12 09:00:00 12 17 Noroeste 37 Oeste 0 -- -- 61
2020-06-12 08:00:00 10.7 13 Noroeste 34 Noroeste 0 -- -- 67
2020-06-12 07:00:00 10.8 15 Noroeste 31 Noroeste 0 -- -- 72
2020-06-12 06:00:00 11.6 17 Noroeste 39 Noroeste 0 -- -- 72
2020-06-12 05:00:00 12.2 16 Noroeste 38 Noroeste 0 -- -- 71
2020-06-12 04:00:00 13.2 18 Noroeste 39 Noroeste 0 -- -- 71
2020-06-12 03:00:00 13.9 19 Noroeste 42 Oeste 0 -- -- 73
2020-06-12 02:00:00 14.4 13 Noroeste 44 Noroeste 0 -- -- 72
2020-06-12 01:00:00 16.7 21 Oeste 43 Oeste 0 -- -- 58
2020-06-12 00:00:00 16.6 16 Noroeste 36 Noroeste 0 -- -- 57
2020-06-11 23:00:00 17.2 21 Noroeste 45 Noroeste 0 -- -- 54
2020-06-11 22:00:00 18.2 21 Noroeste 49 Noroeste 0 -- -- 50
2020-06-11 21:00:00 19.6 22 Noroeste 49 Noroeste 0 -- -- 48
2020-06-11 20:00:00 21.1 22 Noroeste 48 Noroeste 0 -- -- 43
2020-06-11 19:00:00 23.1 22 Noroeste 49 Oeste 0 -- -- 32
2020-06-11 18:00:00 23.8 22 Oeste 51 Noroeste 0 -- -- 34
2020-06-11 17:00:00 24.7 26 Noroeste 48 Noroeste 0 -- -- 30
2020-06-11 16:00:00 24.4 24 Oeste 46 Noroeste 0 -- -- 32
2020-06-11 15:00:00 24.4 19 Noroeste 52 Oeste 0 -- -- 33
2020-06-11 14:00:00 23.4 23 Oeste 49 Oeste 0 -- -- 34
2020-06-11 13:00:00 22.2 25 Oeste 47 Oeste 0 -- -- 37
2020-06-11 12:00:00 21.6 24 Oeste 47 Oeste 0 -- -- 40
2020-06-11 11:00:00 20.3 27 Oeste 45 Noroeste 0 -- -- 42
2020-06-11 10:00:00 18.6 21 Oeste 36 Oeste 0 -- -- 51
2020-06-11 09:00:00 16.2 19 Oeste 32 Oeste 0 -- -- 60
2020-06-11 08:00:00 13.5 6 Sudoeste 17 Sudoeste 0 -- -- 69
2020-06-11 07:00:00 11.8 6 Oeste 12 Oeste 0 -- -- 74
2020-06-11 06:00:00 12.3 3 Sudoeste 17 Oeste 0 -- -- 66
2020-06-11 05:00:00 13.1 7 Oeste 12 Oeste 0 -- -- 53
2020-06-11 04:00:00 12.4 0 Calma 8 Oeste 0 -- -- 56
2020-06-11 03:00:00 13.7 0 Calma 6 Sudoeste 0 -- -- 54
2020-06-11 02:00:00 14.6 0 Calma 6 Oeste 0 -- -- 51
2020-06-11 01:00:00 17.5 3 Oeste 9 Noroeste 0 -- -- 37
2020-06-11 00:00:00 18.3 4 Noroeste 7 Oeste 0 -- -- 37
2020-06-10 23:00:00 20 0 Calma 8 Norte 0 -- -- 34
2020-06-10 22:00:00 21.7 4 Norte 17 Noroeste 0 -- -- 30
2020-06-10 21:00:00 23.2 8 Norte 27 Noroeste 0 -- -- 27
2020-06-10 20:00:00 24.4 9 Noroeste 27 Noroeste 0 -- -- 25
2020-06-10 19:00:00 25.1 12 Noroeste 30 Noroeste 0 -- -- 24
2020-06-10 18:00:00 25.8 14 Noroeste 37 Noroeste 0 -- -- 23
2020-06-10 17:00:00 25.2 9 Noroeste 31 Noroeste 0 -- -- 25
2020-06-10 16:00:00 24.3 5 Oeste 26 Noroeste 0 -- -- 27
2020-06-10 15:00:00 24.4 11 Norte 27 Norte 0 -- -- 28
2020-06-10 14:00:00 24.3 10 Noroeste 29 Nordeste 0 -- -- 28
2020-06-10 13:00:00 22.9 10 Noroeste 24 Noroeste 0 -- -- 30
2020-06-10 12:00:00 22 9 Noroeste 18 Oeste 0 -- -- 34
2020-06-10 11:00:00 21.2 5 Norte 12 Noroeste 0 -- -- 37
2020-06-10 10:00:00 18.8 3 Noroeste 10 Sudoeste 0 -- -- 50
2020-06-10 09:00:00 15.5 4 Sudoeste 7 Sudoeste 0 -- -- 61
2020-06-10 08:00:00 12.8 2 Sudeste 5 Sudeste 0 -- -- 66
2020-06-10 07:00:00 9.4 0 Calma 3 Sudeste 0 -- -- 71
2020-06-10 06:00:00 9.7 0 Calma 5 Sudeste 0 -- -- 66
2020-06-10 05:00:00 10.6 0 Calma 9 Sudoeste 0 -- -- 59
2020-06-10 04:00:00 11.5 0 Calma 2 Este 0 -- -- 59
2020-06-10 03:00:00 12.1 0 Calma 5 Sudeste 0 -- -- 56
2020-06-10 02:00:00 12.5 0 Calma 6 Sudoeste 0 -- -- 56
2020-06-10 01:00:00 13.3 0 Calma 3 Sudeste 0 -- -- 53
2020-06-10 00:00:00 14.8 0 Calma 4 Sur 0 -- -- 47
2020-06-09 23:00:00 16 0 Calma 6 Este 0 -- -- 42
2020-06-09 22:00:00 17.8 5 Este 10 Nordeste 0 -- -- 37
2020-06-09 21:00:00 19.5 6 Nordeste 21 Nordeste 0 -- -- 33
2020-06-09 20:00:00 21.3 9 Nordeste 25 Nordeste 0 -- -- 29
2020-06-09 19:00:00 21.3 11 Norte 25 Nordeste 0 -- -- 28
2020-06-09 18:00:00 22.5 11 Norte 24 Norte 0 -- -- 26
2020-06-09 17:00:00 22.3 13 Norte 25 Norte 0 -- -- 28
2020-06-09 16:00:00 22.3 10 Norte 25 Noroeste 0 -- -- 29
2020-06-09 15:00:00 21.7 9 Norte 23 Noroeste 0 -- -- 31
2020-06-09 14:00:00 20.7 9 Nordeste 22 Norte 0 -- -- 33
2020-06-09 13:00:00 19.1 11 Este 22 Nordeste 0 -- -- 35
2020-06-09 12:00:00 18.6 9 Nordeste 20 Nordeste 0 -- -- 39
2020-06-09 11:00:00 18.8 5 Este 13 Este 0 -- -- 42
2020-06-09 10:00:00 17 6 Este 13 Este 0 -- -- 48
2020-06-09 09:00:00 15.6 8 Sudeste 14 Sur 0 -- -- 52
2020-06-09 08:00:00 12.6 4 Sudeste 12 Sudeste 0 -- -- 67
2020-06-09 07:00:00 11.2 3 Sudeste 8 Sudeste 0 -- -- 71
2020-06-09 06:00:00 11.7 3 Sur 13 Sudeste 0 -- -- 67
2020-06-09 05:00:00 11.9 3 Este 9 Sudeste 0 -- -- 71
2020-06-09 04:00:00 12.4 2 Este 14 Este 0 -- -- 64
2020-06-09 03:00:00 12.8 2 Sur 16 Este 0 -- -- 54
2020-06-09 02:00:00 14.5 6 Este 11 Este 0 -- -- 47
2020-06-09 01:00:00 15.1 2 Sudeste 9 Este 0 -- -- 48
2020-06-09 00:00:00 15.8 4 Nordeste 14 Nordeste 0 -- -- 45
2020-06-08 23:00:00 16.7 7 Nordeste 11 Nordeste 0 -- -- 44
2020-06-08 22:00:00 17.1 4 Nordeste 12 Nordeste 0 -- -- 43
2020-06-08 21:00:00 18 9 Nordeste 23 Norte 0 -- -- 41
2020-06-08 20:00:00 19.3 12 Nordeste 24 Nordeste 0 -- -- 36
2020-06-08 19:00:00 19.9 14 Nordeste 26 Nordeste 0 -- -- 36
2020-06-08 18:00:00 20.7 12 Norte 28 Nordeste 0 -- -- 35
2020-06-08 17:00:00 20.7 9 Norte 27 Nordeste 0 -- -- 35
2020-06-08 16:00:00 19.8 10 Norte 26 Nordeste 0 -- -- 41
2020-06-08 15:00:00 19.6 11 Nordeste 29 Nordeste 0 -- -- 44
2020-06-08 14:00:00 19.2 12 Nordeste 28 Norte 0 -- -- 48
2020-06-08 13:00:00 17.6 13 Norte 28 Nordeste 0 -- -- 57
2020-06-08 12:00:00 18.2 9 Norte 26 Norte 0 -- -- 51
2020-06-08 11:00:00 16.8 10 Norte 30 Noroeste 0 -- -- 56
2020-06-08 10:00:00 16.8 14 Noroeste 26 Oeste 0 -- -- 57
2020-06-08 09:00:00 15.6 12 Oeste 23 Oeste 0 -- -- 61
2020-06-08 08:00:00 13.3 6 Oeste 16 Noroeste 0 -- -- 72
2020-06-08 07:00:00 12.6 8 Oeste 19 Oeste 0 -- -- 76
2020-06-08 06:00:00 12.4 7 Noroeste 17 Noroeste 0 -- -- 77
2020-06-08 05:00:00 12.9 6 Noroeste 18 Noroeste 0 -- -- 75
2020-06-08 04:00:00 13.6 6 Noroeste 18 Oeste 0 -- -- 73
2020-06-08 03:00:00 14.6 9 Noroeste 23 Noroeste 0 -- -- 69
2020-06-08 02:00:00 14.7 8 Noroeste 21 Noroeste 0 -- -- 69
2020-06-08 01:00:00 15.8 8 Noroeste 23 Noroeste 0 -- -- 64
2020-06-08 00:00:00 16.4 8 Noroeste 19 Noroeste 0 -- -- 58
2020-06-07 23:00:00 17.1 6 Noroeste 24 Noroeste 0 -- -- 55
2020-06-07 22:00:00 18.3 12 Noroeste 34 Norte 0 -- -- 50
2020-06-07 21:00:00 19.9 16 Noroeste 36 Noroeste 0 -- -- 46
2020-06-07 20:00:00 21.9 16 Noroeste 42 Noroeste 0 -- -- 40
2020-06-07 19:00:00 23.1 20 Noroeste 49 Noroeste 0 -- -- 36
2020-06-07 18:00:00 24 22 Noroeste 47 Norte 0 -- -- 30
2020-06-07 17:00:00 24.2 23 Noroeste 48 Oeste 0 -- -- 31
2020-06-07 16:00:00 24 19 Oeste 41 Oeste 0 -- -- 38
2020-06-07 15:00:00 23.3 22 Oeste 42 Oeste 0 -- -- 43
2020-06-07 14:00:00 21.6 21 Oeste 40 Noroeste 0 -- -- 49
2020-06-07 13:00:00 20.6 21 Oeste 44 Oeste 0 -- -- 54
2020-06-07 12:00:00 20.1 21 Oeste 41 Oeste 0 -- -- 54
2020-06-07 11:00:00 17.9 15 Oeste 30 Oeste 0 -- -- 66
2020-06-07 10:00:00 15.9 13 Oeste 24 Oeste 0 -- -- 72
2020-06-07 09:00:00 15.4 8 Oeste 23 Oeste 0 -- -- 72
2020-06-07 08:00:00 14.7 7 Oeste 14 Oeste 0 -- -- 73
2020-06-07 07:00:00 14.1 4 Oeste 14 Oeste 0 -- -- 72
2020-06-07 06:00:00 14.6 8 Oeste 18 Oeste 0 -- -- 68
2020-06-07 05:00:00 15.1 4 Sudoeste 7 Sudoeste 0 -- -- 67
2020-06-07 04:00:00 15.4 0 Calma 9 Sudoeste 0 -- -- 65
2020-06-07 03:00:00 16.6 4 Oeste 15 Noroeste 0 -- -- 58
2020-06-07 02:00:00 17.5 9 Oeste 20 Oeste 0 -- -- 56
2020-06-07 01:00:00 18.2 8 Oeste 19 Noroeste 0 -- -- 53
2020-06-07 00:00:00 19 7 Noroeste 17 Oeste 0 -- -- 49